Time;durP1;ratioP1;P1;durP2;ratioP2;P2;SDS_P1;SDS_P2;PMS_P1;PMS_P2;Temp;Humidity;BMP_temperature;BMP_pressure;BME280_temperature;BME280_humidity;BME280_pressure;Samples;Min_cycle;Max_cycle;Signal;HPM_P1;HPM_P2
2021/09/08 00:00:16;;;;;;;10.88;9.77;;;;;;;;;;2094929;28;20538;-61
2021/09/08 00:01:17;;;;;;;12.68;11.05;;;;;;;;;;2093803;28;20566;-59
2021/09/08 00:02:17;;;;;;;12.65;10.80;;;;;;;;;;2094920;28;20213;-62
2021/09/08 00:03:17;;;;;;;13.43;11.10;;;;;;;;;;2089874;28;20233;-62
2021/09/08 00:04:18;;;;;;;13.85;10.65;;;;;;;;;;2093689;28;20714;-59
2021/09/08 00:05:18;;;;;;;11.73;10.52;;;;;;;;;;2092332;28;20172;-59
2021/09/08 00:06:19;;;;;;;15.57;11.48;;;;;;;;;;2095296;28;20652;-62
2021/09/08 00:07:19;;;;;;;12.00;10.80;;;;;;;;;;2095454;28;20195;-59
2021/09/08 00:08:19;;;;;;;16.35;11.63;;;;;;;;;;2096552;28;20228;-58
2021/09/08 00:09:20;;;;;;;12.15;10.95;;;;;;;;;;2096460;28;20262;-63
2021/09/08 00:10:20;;;;;;;12.95;11.13;;;;;;;;;;2096776;28;20175;-63
2021/09/08 00:11:20;;;;;;;14.68;11.52;;;;;;;;;;2082653;28;20699;-61
2021/09/08 00:12:20;;;;;;;13.13;11.75;;;;;;;;;;2093611;28;20273;-62
2021/09/08 00:13:21;;;;;;;12.70;11.40;;;;;;;;;;2090249;28;20847;-59
2021/09/08 00:14:21;;;;;;;13.68;11.90;;;;;;;;;;2093708;28;20749;-61
2021/09/08 00:15:21;;;;;;;13.15;11.45;;;;;;;;;;2084502;28;20160;-61
2021/09/08 00:16:22;;;;;;;12.13;10.88;;;;;;;;;;2096312;28;20247;-59
2021/09/08 00:17:22;;;;;;;12.48;11.07;;;;;;;;;;2090661;28;20175;-63
2021/09/08 00:18:23;;;;;;;13.52;12.18;;;;;;;;;;2090974;28;20193;-62
2021/09/08 00:19:23;;;;;;;12.68;11.38;;;;;;;;;;2097277;28;20167;-65
2021/09/08 00:20:24;;;;;;;12.38;11.18;;;;;;;;;;2089741;28;20218;-58
2021/09/08 00:21:24;;;;;;;13.80;11.68;;;;;;;;;;2097046;28;20170;-63
2021/09/08 00:22:24;;;;;;;13.25;11.60;;;;;;;;;;2096511;28;20266;-62
2021/09/08 00:23:24;;;;;;;13.85;11.50;;;;;;;;;;2097340;28;20226;-64
2021/09/08 00:24:25;;;;;;;12.30;11.00;;;;;;;;;;2096837;28;20179;-63
2021/09/08 00:25:25;;;;;;;13.07;11.68;;;;;;;;;;2097262;28;20541;-61
2021/09/08 00:26:25;;;;;;;12.55;11.25;;;;;;;;;;2093289;28;20179;-60
2021/09/08 00:27:25;;;;;;;13.05;11.57;;;;;;;;;;2090305;28;20168;-61
2021/09/08 00:28:26;;;;;;;13.05;10.95;;;;;;;;;;2087450;28;20241;-59
2021/09/08 00:29:26;;;;;;;16.17;12.55;;;;;;;;;;2087826;28;20262;-61
2021/09/08 00:30:27;;;;;;;13.35;11.95;;;;;;;;;;2087750;28;20263;-61
2021/09/08 00:31:27;;;;;;;15.25;12.32;;;;;;;;;;2091990;28;20233;-57
2021/09/08 00:32:28;;;;;;;15.02;12.20;;;;;;;;;;2096653;28;20179;-61
2021/09/08 00:33:31;;;;;;;15.68;12.10;;;;;;;;;;2097311;28;20177;-58
2021/09/08 00:34:33;;;;;;;16.05;12.77;;;;;;;;;;2097084;28;20234;-61
2021/09/08 00:35:35;;;;;;;13.10;11.60;;;;;;;;;;2095780;28;20639;-60
2021/09/08 00:36:37;;;;;;;12.88;11.57;;;;;;;;;;2096902;28;20175;-63
2021/09/08 00:37:39;;;;;;;11.95;10.75;;;;;;;;;;2090288;28;20689;-60
2021/09/08 00:38:39;;;;;;;13.45;11.40;;;;;;;;;;2097238;28;20220;-62
2021/09/08 00:39:40;;;;;;;12.50;11.32;;;;;;;;;;2097971;28;20175;-65
2021/09/08 00:40:41;;;;;;;13.80;12.40;;;;;;;;;;2098607;28;20212;-58
2021/09/08 00:41:41;;;;;;;12.55;11.25;;;;;;;;;;2096338;28;20189;-62
2021/09/08 00:42:43;;;;;;;12.95;11.40;;;;;;;;;;2095803;28;20206;-60
2021/09/08 00:43:44;;;;;;;13.48;11.35;;;;;;;;;;2098442;28;20201;-65
2021/09/08 00:44:45;;;;;;;13.77;12.23;;;;;;;;;;2096189;28;20186;-59
2021/09/08 00:45:49;;;;;;;12.50;11.20;;;;;;;;;;2098527;28;20781;-62
2021/09/08 00:46:50;;;;;;;13.40;12.00;;;;;;;;;;2096567;28;20228;-62
2021/09/08 00:47:50;;;;;;;14.13;11.85;;;;;;;;;;2092853;28;20190;-61
2021/09/08 00:48:50;;;;;;;13.55;11.95;;;;;;;;;;2095164;28;20193;-63
2021/09/08 00:49:51;;;;;;;15.20;12.10;;;;;;;;;;2097617;28;20208;-60
2021/09/08 00:50:52;;;;;;;12.18;10.93;;;;;;;;;;2094058;28;20171;-61
2021/09/08 00:51:53;;;;;;;14.55;11.13;;;;;;;;;;2090949;28;20175;-58
2021/09/08 00:52:55;;;;;;;14.30;12.02;;;;;;;;;;2094446;28;20155;-63
2021/09/08 00:53:57;;;;;;;13.23;11.82;;;;;;;;;;2098468;28;20220;-63
2021/09/08 00:54:59;;;;;;;13.05;11.82;;;;;;;;;;2094147;28;20810;-63
2021/09/08 00:56:01;;;;;;;14.02;12.25;;;;;;;;;;2097183;28;20202;-61
2021/09/08 00:57:03;;;;;;;14.02;11.90;;;;;;;;;;2087735;28;20172;-60
2021/09/08 00:58:03;;;;;;;14.23;11.90;;;;;;;;;;2080047;28;20164;-58
2021/09/08 00:59:04;;;;;;;12.52;11.23;;;;;;;;;;2091125;28;20225;-59
2021/09/08 01:00:05;;;;;;;12.68;11.45;;;;;;;;;;2097993;28;20163;-63
2021/09/08 01:01:07;;;;;;;14.60;11.52;;;;;;;;;;2098097;28;20296;-62
2021/09/08 01:02:11;;;;;;;15.52;12.23;;;;;;;;;;2088381;28;20636;-59
2021/09/08 01:03:12;;;;;;;13.38;11.57;;;;;;;;;;2090233;28;20229;-61
2021/09/08 01:04:14;;;;;;;15.60;12.65;;;;;;;;;;2093829;28;20615;-62
2021/09/08 01:05:14;;;;;;;14.50;12.25;;;;;;;;;;2096541;28;20209;-60
2021/09/08 01:06:17;;;;;;;13.45;12.00;;;;;;;;;;2092714;28;20811;-62
2021/09/08 01:07:18;;;;;;;16.40;12.15;;;;;;;;;;2091921;28;20163;-58
2021/09/08 01:08:20;;;;;;;14.63;11.90;;;;;;;;;;2096277;28;20177;-62
2021/09/08 01:09:21;;;;;;;15.48;13.05;;;;;;;;;;2098104;28;20182;-63
2021/09/08 01:10:23;;;;;;;13.38;11.98;;;;;;;;;;2098255;28;20658;-60
2021/09/08 01:11:23;;;;;;;15.52;12.13;;;;;;;;;;2098009;28;20300;-63
2021/09/08 01:12:24;;;;;;;13.13;11.80;;;;;;;;;;2098210;28;20227;-60
2021/09/08 01:13:24;;;;;;;13.43;11.27;;;;;;;;;;2098639;28;20246;-58
2021/09/08 01:14:25;;;;;;;13.93;12.05;;;;;;;;;;2100193;28;20635;-61
2021/09/08 01:15:25;;;;;;;12.52;11.23;;;;;;;;;;2102677;28;20187;-62
2021/09/08 01:16:26;;;;;;;12.65;11.15;;;;;;;;;;2102666;28;20185;-64
2021/09/08 01:17:27;;;;;;;14.05;11.35;;;;;;;;;;2093121;28;20524;-57
2021/09/08 01:18:31;;;;;;;13.73;12.30;;;;;;;;;;2095112;28;20738;-61
2021/09/08 01:19:31;;;;;;;13.60;12.15;;;;;;;;;;2091357;28;20168;-59
2021/09/08 01:20:31;;;;;;;15.10;12.15;;;;;;;;;;2098616;28;20664;-59
2021/09/08 01:21:31;;;;;;;15.77;12.80;;;;;;;;;;2097613;28;20166;-60
2021/09/08 01:22:34;;;;;;;13.90;12.40;;;;;;;;;;2091563;28;20610;-63
2021/09/08 01:23:34;;;;;;;14.13;12.38;;;;;;;;;;2083940;28;20228;-61
2021/09/08 01:24:34;;;;;;;14.43;12.50;;;;;;;;;;2096992;28;20219;-65
2021/09/08 01:25:35;;;;;;;14.98;12.43;;;;;;;;;;2094899;28;22024;-65
2021/09/08 01:26:35;;;;;;;15.80;12.68;;;;;;;;;;2090657;28;20178;-62
2021/09/08 01:27:35;;;;;;;14.82;12.27;;;;;;;;;;2094467;28;20664;-61
2021/09/08 01:28:36;;;;;;;14.63;12.63;;;;;;;;;;2093435;28;20590;-59
2021/09/08 01:29:37;;;;;;;14.25;11.80;;;;;;;;;;2094195;28;20168;-65
2021/09/08 01:30:40;;;;;;;15.00;12.63;;;;;;;;;;2097800;28;20236;-61
2021/09/08 01:31:41;;;;;;;15.13;13.05;;;;;;;;;;2090467;28;20171;-60
2021/09/08 01:32:42;;;;;;;13.77;12.38;;;;;;;;;;2096386;28;20175;-60
2021/09/08 01:33:43;;;;;;;14.40;11.93;;;;;;;;;;2093328;28;20257;-60
2021/09/08 01:34:43;;;;;;;15.75;13.07;;;;;;;;;;2097197;28;20538;-64
2021/09/08 01:35:43;;;;;;;13.35;11.80;;;;;;;;;;2097749;28;20202;-61
2021/09/08 01:36:44;;;;;;;14.82;12.68;;;;;;;;;;2094127;28;20638;-59
2021/09/08 01:37:48;;;;;;;13.90;12.43;;;;;;;;;;2089174;28;20636;-59
2021/09/08 01:38:48;;;;;;;14.90;13.15;;;;;;;;;;2090181;28;20187;-60
2021/09/08 01:39:48;;;;;;;15.55;12.85;;;;;;;;;;2095983;28;20198;-59
2021/09/08 01:40:48;;;;;;;14.10;12.70;;;;;;;;;;2093294;28;20274;-56
2021/09/08 01:41:49;;;;;;;17.48;12.55;;;;;;;;;;2095426;28;20182;-56
2021/09/08 01:42:49;;;;;;;15.65;12.52;;;;;;;;;;2090556;28;20195;-61
2021/09/08 01:43:50;;;;;;;13.57;12.18;;;;;;;;;;2092502;28;20738;-59
2021/09/08 01:44:50;;;;;;;14.32;12.65;;;;;;;;;;2095766;28;20547;-61
2021/09/08 01:45:50;;;;;;;14.77;12.27;;;;;;;;;;2097253;28;20541;-60
2021/09/08 01:46:52;;;;;;;11.93;10.52;;;;;;;;;;2092249;28;20265;-58
2021/09/08 01:47:54;;;;;;;14.75;11.95;;;;;;;;;;2091211;28;20603;-61
2021/09/08 01:48:54;;;;;;;14.48;12.23;;;;;;;;;;2088442;28;20519;-62
2021/09/08 01:49:54;;;;;;;14.57;12.57;;;;;;;;;;2089272;28;20199;-62
2021/09/08 01:50:55;;;;;;;13.30;11.93;;;;;;;;;;2097531;28;20182;-60
2021/09/08 01:51:55;;;;;;;13.50;12.05;;;;;;;;;;2095053;28;20179;-60
2021/09/08 01:52:55;;;;;;;14.38;11.75;;;;;;;;;;2097692;28;20768;-62
2021/09/08 01:53:55;;;;;;;13.20;11.82;;;;;;;;;;2098053;28;20635;-58
2021/09/08 01:54:56;;;;;;;15.20;12.68;;;;;;;;;;2096455;28;20247;-60
2021/09/08 01:55:56;;;;;;;15.75;12.48;;;;;;;;;;2093914;28;20179;-60
2021/09/08 01:56:56;;;;;;;15.10;11.90;;;;;;;;;;2097803;28;20191;-64
2021/09/08 01:57:56;;;;;;;14.80;12.35;;;;;;;;;;2096626;28;20174;-61
2021/09/08 01:58:56;;;;;;;13.25;11.52;;;;;;;;;;2097826;28;20190;-63
2021/09/08 01:59:57;;;;;;;13.15;11.75;;;;;;;;;;2096744;28;20179;-62
2021/09/08 02:00:58;;;;;;;13.25;11.95;;;;;;;;;;2097837;28;20175;-59
2021/09/08 02:01:58;;;;;;;12.75;11.32;;;;;;;;;;2094194;28;20277;-60
2021/09/08 02:02:58;;;;;;;13.18;11.75;;;;;;;;;;2093230;28;20249;-58
2021/09/08 02:03:58;;;;;;;14.50;11.63;;;;;;;;;;2092936;28;20159;-62
2021/09/08 02:04:59;;;;;;;15.38;12.35;;;;;;;;;;2093411;28;20187;-64
2021/09/08 02:05:59;;;;;;;15.05;12.45;;;;;;;;;;2096087;28;20221;-63
2021/09/08 02:06:59;;;;;;;14.18;12.32;;;;;;;;;;2095046;28;20220;-63
2021/09/08 02:07:59;;;;;;;13.18;11.85;;;;;;;;;;2092428;28;20205;-62
2021/09/08 02:09:00;;;;;;;15.75;12.98;;;;;;;;;;2094376;28;20174;-62
2021/09/08 02:10:01;;;;;;;14.25;12.75;;;;;;;;;;2093073;28;20207;-58
2021/09/08 02:11:01;;;;;;;17.33;12.35;;;;;;;;;;2093807;28;20257;-60
2021/09/08 02:12:01;;;;;;;16.85;11.75;;;;;;;;;;2096110;28;20262;-63
2021/09/08 02:13:04;;;;;;;15.48;13.48;;;;;;;;;;2093243;28;20264;-59
2021/09/08 02:14:04;;;;;;;15.07;13.45;;;;;;;;;;2081469;28;20263;-60
2021/09/08 02:15:06;;;;;;;16.77;13.88;;;;;;;;;;2089603;28;20171;-61
2021/09/08 02:16:06;;;;;;;14.93;13.38;;;;;;;;;;2098911;28;20206;-60
2021/09/08 02:17:06;;;;;;;17.23;13.55;;;;;;;;;;2099164;28;20171;-59
2021/09/08 02:18:07;;;;;;;15.80;13.82;;;;;;;;;;2099699;28;20186;-58
2021/09/08 02:19:07;;;;;;;14.85;13.23;;;;;;;;;;2100093;28;20170;-58
2021/09/08 02:20:07;;;;;;;17.40;13.27;;;;;;;;;;2100727;28;20159;-56
2021/09/08 02:21:08;;;;;;;14.77;13.32;;;;;;;;;;2098984;28;20174;-59
2021/09/08 02:22:08;;;;;;;15.30;13.40;;;;;;;;;;2090896;28;20176;-61
2021/09/08 02:23:09;;;;;;;14.88;13.02;;;;;;;;;;2099058;28;20175;-59
2021/09/08 02:24:09;;;;;;;15.63;13.38;;;;;;;;;;2098855;28;20175;-59
2021/09/08 02:25:09;;;;;;;13.63;12.30;;;;;;;;;;2098969;28;20175;-61
2021/09/08 02:26:09;;;;;;;18.73;14.90;;;;;;;;;;2089438;28;20286;-60
2021/09/08 02:27:10;;;;;;;14.68;12.95;;;;;;;;;;2090259;28;20174;-58
2021/09/08 02:28:11;;;;;;;14.43;12.70;;;;;;;;;;2094462;28;20178;-62
2021/09/08 02:29:11;;;;;;;15.68;13.95;;;;;;;;;;2090703;28;20590;-54
2021/09/08 02:30:12;;;;;;;15.93;14.23;;;;;;;;;;2090387;28;20199;-61
2021/09/08 02:31:12;;;;;;;14.52;12.57;;;;;;;;;;2090840;28;20195;-60
2021/09/08 02:32:12;;;;;;;17.38;14.90;;;;;;;;;;2090640;28;20222;-60
2021/09/08 02:33:12;;;;;;;17.90;14.02;;;;;;;;;;2090597;28;20293;-59
2021/09/08 02:34:13;;;;;;;17.02;15.13;;;;;;;;;;2090633;28;20176;-64
2021/09/08 02:35:13;;;;;;;16.75;13.60;;;;;;;;;;2090726;28;20160;-63
2021/09/08 02:36:14;;;;;;;17.20;14.18;;;;;;;;;;2091121;28;20199;-58
2021/09/08 02:37:14;;;;;;;17.02;14.63;;;;;;;;;;2093571;28;20229;-59
2021/09/08 02:38:14;;;;;;;17.70;15.38;;;;;;;;;;2090239;28;20194;-59
2021/09/08 02:39:14;;;;;;;16.05;14.35;;;;;;;;;;2090869;28;20187;-59
2021/09/08 02:40:14;;;;;;;18.45;15.10;;;;;;;;;;2090626;28;20181;-63
2021/09/08 02:41:15;;;;;;;18.23;14.45;;;;;;;;;;2091350;28;20686;-60
2021/09/08 02:42:15;;;;;;;17.15;14.73;;;;;;;;;;2098993;28;20552;-63
2021/09/08 02:43:16;;;;;;;18.45;14.90;;;;;;;;;;2089741;28;20199;-60
2021/09/08 02:44:16;;;;;;;18.27;14.55;;;;;;;;;;2088212;28;20674;-61
2021/09/08 02:45:16;;;;;;;16.13;14.35;;;;;;;;;;2089987;28;20210;-61
2021/09/08 02:46:16;;;;;;;17.70;15.38;;;;;;;;;;2088883;28;20168;-56
2021/09/08 02:47:17;;;;;;;16.60;14.45;;;;;;;;;;2090933;28;20184;-61
2021/09/08 02:48:17;;;;;;;17.67;15.57;;;;;;;;;;2090765;28;20175;-63
2021/09/08 02:49:17;;;;;;;18.10;15.23;;;;;;;;;;2082334;28;20172;-61
2021/09/08 02:50:17;;;;;;;18.40;15.93;;;;;;;;;;2082227;28;20239;-60
2021/09/08 02:51:18;;;;;;;20.10;15.48;;;;;;;;;;2092131;28;20660;-64
2021/09/08 02:52:18;;;;;;;19.85;15.10;;;;;;;;;;2098931;28;20235;-63
2021/09/08 02:53:18;;;;;;;16.13;14.45;;;;;;;;;;2098094;28;20187;-60
2021/09/08 02:54:18;;;;;;;17.20;14.85;;;;;;;;;;2097333;28;20242;-61
2021/09/08 02:55:19;;;;;;;18.90;14.57;;;;;;;;;;2097660;28;20221;-59
2021/09/08 02:56:19;;;;;;;17.42;14.30;;;;;;;;;;2097217;28;20257;-59
2021/09/08 02:57:19;;;;;;;18.38;15.68;;;;;;;;;;2097594;28;20230;-59
2021/09/08 02:58:19;;;;;;;18.65;15.90;;;;;;;;;;2092718;28;20175;-58
2021/09/08 02:59:20;;;;;;;17.15;14.20;;;;;;;;;;2095345;28;20210;-61
2021/09/08 03:00:20;;;;;;;17.73;15.20;;;;;;;;;;2096844;28;20187;-64
2021/09/08 03:01:20;;;;;;;17.40;15.55;;;;;;;;;;2095012;28;20652;-61
2021/09/08 03:02:21;;;;;;;20.17;15.57;;;;;;;;;;2094247;28;20236;-62
2021/09/08 03:03:21;;;;;;;21.27;15.68;;;;;;;;;;2090663;28;20257;-61
2021/09/08 03:04:21;;;;;;;18.27;15.57;;;;;;;;;;2096044;28;20201;-63
2021/09/08 03:05:22;;;;;;;17.23;15.25;;;;;;;;;;2088643;28;20214;-60
2021/09/08 03:06:22;;;;;;;18.23;16.17;;;;;;;;;;2086281;28;20176;-60
2021/09/08 03:07:22;;;;;;;17.73;15.55;;;;;;;;;;2089007;28;20173;-58
2021/09/08 03:08:22;;;;;;;21.05;16.45;;;;;;;;;;2091255;28;20190;-64
2021/09/08 03:09:22;;;;;;;18.85;15.43;;;;;;;;;;2084499;28;20183;-63
2021/09/08 03:10:23;;;;;;;17.60;15.80;;;;;;;;;;2091637;28;20615;-65
2021/09/08 03:11:23;;;;;;;17.10;14.57;;;;;;;;;;2096422;28;20247;-65
2021/09/08 03:12:23;;;;;;;17.58;15.02;;;;;;;;;;2096598;28;20230;-66
2021/09/08 03:13:24;;;;;;;21.75;14.75;;;;;;;;;;2096666;28;20175;-63
2021/09/08 03:14:24;;;;;;;20.95;14.43;;;;;;;;;;2100312;28;20228;-64
2021/09/08 03:15:24;;;;;;;17.35;14.70;;;;;;;;;;2085141;28;20191;-62
2021/09/08 03:16:24;;;;;;;18.13;15.50;;;;;;;;;;2084868;22;20733;-52
2021/09/08 03:17:24;;;;;;;20.17;15.88;;;;;;;;;;2088039;28;20221;-51
2021/09/08 03:18:25;;;;;;;18.13;16.02;;;;;;;;;;2083420;28;20176;-53
2021/09/08 03:19:25;;;;;;;22.95;16.77;;;;;;;;;;2089241;28;20210;-56
2021/09/08 03:20:25;;;;;;;20.45;15.95;;;;;;;;;;2088406;28;20535;-55
2021/09/08 03:21:26;;;;;;;17.60;15.48;;;;;;;;;;2075460;28;20192;-52
2021/09/08 03:22:26;;;;;;;19.20;16.25;;;;;;;;;;2074282;28;20207;-55
2021/09/08 03:23:26;;;;;;;20.23;16.83;;;;;;;;;;2088535;28;20177;-56
2021/09/08 03:24:26;;;;;;;21.45;16.35;;;;;;;;;;2089000;28;20168;-55
2021/09/08 03:25:27;;;;;;;18.27;15.10;;;;;;;;;;2079310;28;20188;-53
2021/09/08 03:26:27;;;;;;;19.75;17.13;;;;;;;;;;2079801;28;20683;-56
2021/09/08 03:27:28;;;;;;;20.10;16.50;;;;;;;;;;2081302;28;20206;-56
2021/09/08 03:28:28;;;;;;;19.30;16.20;;;;;;;;;;2080674;28;20243;-57
2021/09/08 03:29:28;;;;;;;19.67;15.75;;;;;;;;;;2073428;28;20204;-56
2021/09/08 03:30:28;;;;;;;22.40;17.00;;;;;;;;;;2072531;28;20203;-58
2021/09/08 03:31:29;;;;;;;20.00;16.58;;;;;;;;;;2081603;28;20539;-56
2021/09/08 03:32:29;;;;;;;20.75;16.80;;;;;;;;;;2080801;28;20223;-58
2021/09/08 03:33:29;;;;;;;17.58;15.55;;;;;;;;;;2080866;28;20195;-58
2021/09/08 03:34:29;;;;;;;19.15;15.70;;;;;;;;;;2073765;28;20173;-58
2021/09/08 03:35:30;;;;;;;18.85;15.90;;;;;;;;;;2083796;28;20180;-58
2021/09/08 03:36:30;;;;;;;21.65;16.35;;;;;;;;;;2083440;28;20202;-58
2021/09/08 03:37:30;;;;;;;17.80;15.73;;;;;;;;;;2080364;28;20626;-58
2021/09/08 03:38:30;;;;;;;20.60;17.08;;;;;;;;;;2084708;28;20536;-59
2021/09/08 03:39:31;;;;;;;17.90;15.43;;;;;;;;;;2073013;28;20177;-57
2021/09/08 03:40:31;;;;;;;22.00;17.25;;;;;;;;;;2063073;28;20173;-58
2021/09/08 03:41:31;;;;;;;18.35;16.33;;;;;;;;;;2074835;28;20305;-56
2021/09/08 03:42:32;;;;;;;23.42;18.73;;;;;;;;;;2081050;28;20254;-58
2021/09/08 03:43:32;;;;;;;20.55;16.38;;;;;;;;;;2079560;28;20187;-56
2021/09/08 03:44:32;;;;;;;19.80;16.77;;;;;;;;;;2081036;28;20204;-58
2021/09/08 03:45:33;;;;;;;21.52;17.73;;;;;;;;;;2080393;28;20268;-56
2021/09/08 03:46:33;;;;;;;20.92;18.60;;;;;;;;;;2080779;28;20199;-57
2021/09/08 03:47:33;;;;;;;23.67;17.65;;;;;;;;;;2079512;28;20206;-59
2021/09/08 03:48:34;;;;;;;21.58;18.55;;;;;;;;;;2072414;28;20165;-58
2021/09/08 03:49:34;;;;;;;21.95;18.63;;;;;;;;;;2083751;28;20179;-58
2021/09/08 03:50:34;;;;;;;23.85;18.85;;;;;;;;;;2081024;28;20175;-58
2021/09/08 03:51:35;;;;;;;19.45;17.35;;;;;;;;;;2078143;28;20200;-58
2021/09/08 03:52:35;;;;;;;22.77;18.75;;;;;;;;;;2071976;28;20276;-57
2021/09/08 03:53:35;;;;;;;21.08;18.08;;;;;;;;;;2071693;28;20226;-57
2021/09/08 03:54:36;;;;;;;21.25;17.65;;;;;;;;;;2073724;28;20763;-57
2021/09/08 03:55:36;;;;;;;23.55;18.63;;;;;;;;;;2080734;28;20156;-55
2021/09/08 03:56:36;;;;;;;21.25;18.50;;;;;;;;;;2075442;28;20204;-56
2021/09/08 03:57:36;;;;;;;22.80;18.63;;;;;;;;;;2080269;28;20180;-58
2021/09/08 03:58:37;;;;;;;21.73;18.10;;;;;;;;;;2073353;28;20180;-57
2021/09/08 03:59:39;;;;;;;23.00;18.25;;;;;;;;;;2079570;28;20580;-57
2021/09/08 04:00:39;;;;;;;22.08;17.77;;;;;;;;;;2071906;28;20660;-58
2021/09/08 04:01:39;;;;;;;22.38;17.65;;;;;;;;;;2064365;28;20212;-58
2021/09/08 04:02:40;;;;;;;22.95;19.05;;;;;;;;;;2073119;28;20264;-58
2021/09/08 04:03:40;;;;;;;22.95;18.30;;;;;;;;;;2082639;28;20163;-59
2021/09/08 04:04:41;;;;;;;23.08;18.75;;;;;;;;;;2080519;28;20168;-58
2021/09/08 04:05:41;;;;;;;22.48;18.80;;;;;;;;;;2079331;28;20181;-59
2021/09/08 04:06:42;;;;;;;20.48;18.08;;;;;;;;;;2084700;28;20191;-55
2021/09/08 04:07:42;;;;;;;23.33;19.75;;;;;;;;;;2078846;28;20207;-52
2021/09/08 04:08:42;;;;;;;22.33;19.00;;;;;;;;;;2080152;28;20160;-57
2021/09/08 04:09:42;;;;;;;20.88;18.55;;;;;;;;;;2073223;28;20181;-58
2021/09/08 04:10:43;;;;;;;29.48;19.33;;;;;;;;;;2073369;28;20646;-58
2021/09/08 04:11:43;;;;;;;23.92;19.67;;;;;;;;;;2081581;28;20172;-55
2021/09/08 04:12:43;;;;;;;22.23;19.00;;;;;;;;;;2073552;28;20173;-56
2021/09/08 04:13:44;;;;;;;22.20;19.67;;;;;;;;;;2075922;28;20750;-56
2021/09/08 04:14:44;;;;;;;22.75;18.95;;;;;;;;;;2082105;28;20164;-59
2021/09/08 04:15:44;;;;;;;27.75;19.13;;;;;;;;;;2079075;28;20180;-58
2021/09/08 04:16:44;;;;;;;22.10;18.20;;;;;;;;;;2082090;28;20750;-55
2021/09/08 04:17:45;;;;;;;25.67;19.98;;;;;;;;;;2078263;28;20177;-58
2021/09/08 04:18:45;;;;;;;21.10;18.83;;;;;;;;;;2081841;28;20184;-58
2021/09/08 04:19:45;;;;;;;23.33;16.73;;;;;;;;;;2077911;28;20264;-56
2021/09/08 04:20:45;;;;;;;20.58;18.25;;;;;;;;;;2082246;28;20179;-57
2021/09/08 04:21:46;;;;;;;23.50;17.70;;;;;;;;;;2078656;28;20184;-57
2021/09/08 04:22:46;;;;;;;20.52;17.48;;;;;;;;;;2085740;28;20182;-58
2021/09/08 04:23:46;;;;;;;23.08;18.05;;;;;;;;;;2077382;28;20180;-53
2021/09/08 04:24:46;;;;;;;24.58;18.50;;;;;;;;;;2081321;28;20189;-57
2021/09/08 04:25:47;;;;;;;22.27;18.38;;;;;;;;;;2079754;28;20261;-58
2021/09/08 04:26:47;;;;;;;20.52;17.85;;;;;;;;;;2081048;28;20176;-58
2021/09/08 04:27:47;;;;;;;23.00;18.58;;;;;;;;;;2068852;28;20166;-57
2021/09/08 04:28:47;;;;;;;21.50;17.38;;;;;;;;;;2072289;28;20634;-57
2021/09/08 04:29:48;;;;;;;18.92;16.80;;;;;;;;;;2076157;28;20585;-60
2021/09/08 04:30:48;;;;;;;20.88;17.80;;;;;;;;;;2084502;28;20251;-57
2021/09/08 04:31:48;;;;;;;19.77;16.80;;;;;;;;;;2082072;28;20195;-57
2021/09/08 04:32:48;;;;;;;21.48;17.17;;;;;;;;;;2076466;28;20578;-56
2021/09/08 04:33:49;;;;;;;20.10;16.90;;;;;;;;;;2069828;28;20181;-54
2021/09/08 04:34:49;;;;;;;24.08;17.52;;;;;;;;;;2075900;28;20187;-57
2021/09/08 04:35:52;;;;;;;25.83;18.77;;;;;;;;;;2069621;28;20600;-56
2021/09/08 04:36:53;;;;;;;24.75;18.30;;;;;;;;;;2073608;28;20194;-58
2021/09/08 04:37:53;;;;;;;24.98;18.05;;;;;;;;;;2076875;28;20581;-55
2021/09/08 04:38:53;;;;;;;22.75;18.23;;;;;;;;;;2078531;28;20871;-57
2021/09/08 04:39:53;;;;;;;21.88;17.77;;;;;;;;;;2076899;28;20180;-57
2021/09/08 04:40:54;;;;;;;20.88;17.17;;;;;;;;;;2081746;28;20172;-58
2021/09/08 04:41:54;;;;;;;22.42;18.60;;;;;;;;;;2081599;28;20212;-57
2021/09/08 04:42:54;;;;;;;21.33;18.05;;;;;;;;;;2080330;28;20675;-60
2021/09/08 04:43:55;;;;;;;24.88;18.45;;;;;;;;;;2080022;28;20180;-58
2021/09/08 04:44:55;;;;;;;22.35;17.42;;;;;;;;;;2076635;28;20176;-60
2021/09/08 04:45:55;;;;;;;18.35;16.10;;;;;;;;;;2077815;28;20164;-58
2021/09/08 04:46:55;;;;;;;22.80;17.88;;;;;;;;;;2081996;28;20680;-58
2021/09/08 04:47:56;;;;;;;21.90;17.75;;;;;;;;;;2081455;28;20203;-58
2021/09/08 04:48:56;;;;;;;21.35;17.30;;;;;;;;;;2078239;28;20173;-60
2021/09/08 04:49:57;;;;;;;20.67;16.75;;;;;;;;;;2077495;28;20211;-58
2021/09/08 04:50:57;;;;;;;21.38;17.63;;;;;;;;;;2082336;28;20168;-57
2021/09/08 04:51:57;;;;;;;21.60;18.67;;;;;;;;;;2073134;28;20596;-55
2021/09/08 04:52:57;;;;;;;19.70;17.60;;;;;;;;;;2071847;28;20657;-58
2021/09/08 04:53:58;;;;;;;21.75;19.38;;;;;;;;;;2079204;28;20198;-58
2021/09/08 04:54:58;;;;;;;23.73;18.98;;;;;;;;;;2079123;28;20176;-58
2021/09/08 04:55:59;;;;;;;24.73;21.25;;;;;;;;;;2074014;28;20191;-57
2021/09/08 04:56:59;;;;;;;23.52;18.92;;;;;;;;;;2073585;28;20628;-58
2021/09/08 04:57:59;;;;;;;22.20;18.33;;;;;;;;;;2076593;28;20608;-58
2021/09/08 04:58:59;;;;;;;22.20;18.17;;;;;;;;;;2065630;28;20619;-59
2021/09/08 05:00:00;;;;;;;22.63;18.15;;;;;;;;;;2074652;28;20191;-56
2021/09/08 05:01:00;;;;;;;22.70;18.02;;;;;;;;;;2072880;28;20263;-57
2021/09/08 05:02:00;;;;;;;21.85;18.77;;;;;;;;;;2075986;28;20268;-59
2021/09/08 05:03:00;;;;;;;24.42;20.75;;;;;;;;;;2077726;28;20276;-58
2021/09/08 05:04:01;;;;;;;24.52;21.88;;;;;;;;;;2084206;28;20203;-58
2021/09/08 05:05:01;;;;;;;20.67;18.40;;;;;;;;;;2083300;28;20334;-58
2021/09/08 05:06:02;;;;;;;24.42;20.88;;;;;;;;;;2083427;28;20176;-58
2021/09/08 05:07:02;;;;;;;21.13;18.15;;;;;;;;;;2072877;28;20271;-58
2021/09/08 05:08:02;;;;;;;31.88;24.60;;;;;;;;;;2072865;28;20224;-53
2021/09/08 05:09:03;;;;;;;24.08;19.80;;;;;;;;;;2077775;28;20567;-54
2021/09/08 05:10:03;;;;;;;22.42;18.05;;;;;;;;;;2083982;28;20207;-56
2021/09/08 05:11:04;;;;;;;20.02;17.02;;;;;;;;;;2080576;28;20234;-55
2021/09/08 05:12:04;;;;;;;23.33;17.17;;;;;;;;;;2081885;28;20659;-56
2021/09/08 05:13:05;;;;;;;22.02;18.65;;;;;;;;;;2081157;28;20165;-56
2021/09/08 05:14:05;;;;;;;25.52;21.23;;;;;;;;;;2084548;28;20177;-54
2021/09/08 05:15:06;;;;;;;22.88;17.73;;;;;;;;;;2082702;28;20317;-53
2021/09/08 05:16:07;;;;;;;22.60;17.98;;;;;;;;;;2079736;28;20212;-57
2021/09/08 05:17:07;;;;;;;21.58;18.23;;;;;;;;;;2078217;28;20188;-54
2021/09/08 05:18:08;;;;;;;20.65;17.88;;;;;;;;;;2067466;28;20289;-55
2021/09/08 05:19:08;;;;;;;20.88;17.10;;;;;;;;;;2063041;28;20228;-61
2021/09/08 05:20:08;;;;;;;24.73;18.73;;;;;;;;;;2074284;28;20628;-56
2021/09/08 05:21:08;;;;;;;19.00;17.13;;;;;;;;;;2084876;28;20175;-57
2021/09/08 05:22:09;;;;;;;19.83;17.02;;;;;;;;;;2077081;28;20644;-57
2021/09/08 05:23:09;;;;;;;22.00;17.15;;;;;;;;;;2076157;28;20258;-58
2021/09/08 05:24:09;;;;;;;20.67;16.88;;;;;;;;;;2059285;28;20171;-55
2021/09/08 05:25:10;;;;;;;19.65;17.55;;;;;;;;;;2064068;28;20193;-54
2021/09/08 05:26:10;;;;;;;18.98;16.58;;;;;;;;;;2082980;28;20231;-57
2021/09/08 05:27:10;;;;;;;25.25;20.65;;;;;;;;;;2072427;28;20165;-57
2021/09/08 05:28:11;;;;;;;18.35;16.38;;;;;;;;;;2064950;28;20182;-58
2021/09/08 05:29:11;;;;;;;23.38;16.52;;;;;;;;;;2070234;28;20861;-58
2021/09/08 05:30:12;;;;;;;21.15;16.63;;;;;;;;;;2071749;28;20201;-57
2021/09/08 05:31:12;;;;;;;22.42;16.70;;;;;;;;;;2081182;28;20173;-58
2021/09/08 05:32:12;;;;;;;18.25;15.40;;;;;;;;;;2072242;28;20177;-58
2021/09/08 05:33:13;;;;;;;18.33;16.23;;;;;;;;;;2073153;28;20559;-58
2021/09/08 05:34:13;;;;;;;20.25;16.27;;;;;;;;;;2081773;28;20255;-55
2021/09/08 05:35:13;;;;;;;17.20;14.95;;;;;;;;;;2082348;28;20173;-56
2021/09/08 05:36:15;;;;;;;22.48;16.73;;;;;;;;;;2074992;28;20201;-56
2021/09/08 05:37:15;;;;;;;18.33;15.40;;;;;;;;;;2066856;28;20213;-57
2021/09/08 05:38:15;;;;;;;19.33;16.17;;;;;;;;;;2066360;28;20267;-57
2021/09/08 05:39:16;;;;;;;21.05;17.25;;;;;;;;;;2073171;28;20248;-56
2021/09/08 05:40:16;;;;;;;17.60;15.70;;;;;;;;;;2077884;28;20177;-58
2021/09/08 05:41:16;;;;;;;19.98;16.02;;;;;;;;;;2079357;28;20195;-54
2021/09/08 05:42:16;;;;;;;18.60;16.60;;;;;;;;;;2080732;28;20199;-57
2021/09/08 05:43:17;;;;;;;20.13;16.38;;;;;;;;;;2080984;28;20188;-56
2021/09/08 05:44:17;;;;;;;20.10;16.10;;;;;;;;;;2082034;28;20176;-58
2021/09/08 05:45:17;;;;;;;18.55;16.10;;;;;;;;;;2081881;28;20677;-57
2021/09/08 05:46:17;;;;;;;18.77;15.10;;;;;;;;;;2083248;28;20196;-58
2021/09/08 05:47:18;;;;;;;22.80;16.30;;;;;;;;;;2076713;28;20184;-57
2021/09/08 05:48:18;;;;;;;19.60;15.73;;;;;;;;;;2082499;28;20172;-57
2021/09/08 05:49:19;;;;;;;17.42;14.95;;;;;;;;;;2070594;28;20173;-57
2021/09/08 05:50:19;;;;;;;24.85;15.57;;;;;;;;;;2066127;28;20674;-55
2021/09/08 05:51:19;;;;;;;17.33;15.00;;;;;;;;;;2073885;28;20177;-56